Dallas, TX (75205)

8:02 PM CDT on April 19, 2015 (GMT -0500)
m-streets | | Change Station
CLOSE
Current Station
Personal Weather Station
Location: Dallas, TX
Elevation: 600 ft
Nearby Weather Stations

Elev 600 ft 32.82 °N, 96.78 °W | Updated 21 seconds ago

Clear
Clear
70.9 °F
Feels Like 77 °F
N
0.0
Wind Variable Wind from North
Gusts 0.0 mph

Today
High -- | Low -- °F
--% Chance of Precip.
Yesterday
High -- | Low -- °F
Precip. -- in
6:53 AM 8:00 PM
New Moon, 2% visible
Pressure 29.76 in
Visibility 10.0 miles
Clouds Few 7500 ft
Heat Index 77 °F
Dew Point 52 °F
Humidity 51%
Rainfall 0.38 in
Snow Depth Not available.
UV 0 out of 12
Pollen 9.80 out of 12
Air Quality Not available.
Flu Activity Local Activity
METAR KDAL 200053Z 31014G20KT 10SM FEW075 23/07 A2977 RMK AO2 SLP077 T02280072

More Conditions Fewer Conditions

Pressure 29.76 in
Visibility 10.0 miles
Clouds Few 7500 ft
Heat Index 77 °F
Dew Point 52 °F
Humidity 51%
Rainfall 0.38 in
Snow Depth Not available.
UV 0 out of 12
Pollen 9.80 out of 12
Air Quality Not available.
Flu Activity Local Activity
METAR KDAL 200053Z 31014G20KT 10SM FEW075 23/07 A2977 RMK AO2 SLP077 T02280072

More Conditions Fewer Conditions

10-Day Weather Forecast

Almanac

Astronomy

Apr. 19, 2015 Rise Set
Actual Time
Civil Twilight
Nautical Twilight
Astronomical Twilight
Moon
Length of Visible Light
Length of Day
Tomorrow will be .
, % of the Moon is Illuminated

Today's Extremes

State Highs State Lows

Community

WunderPhotos

Upload Photos

1,815,080 photos uploaded!

WunderBlogs® & News

Nearby

Air Quality

  Air Quality AQ Index Pollutant
Not available.

Snow Depth

Station Depth Elevation

Earthquake Activity

City Distance Mag. Time & Date
Minimum magnitude displayed is 2.5.

Coastal Water Temperatures

Place Temperature

Stations

Nearby Weather Stations

Station Location Temp. Windchill Dew Point Humidity Wind Precip. Elev Updated Type